createdAt,value
2018-12-04T00:01:44.474Z,48.73
2018-12-04T00:06:47.073Z,48.60
2018-12-04T00:11:49.565Z,48.83
2018-12-04T00:16:52.570Z,48.58
2018-12-04T00:21:55.054Z,48.52
2018-12-04T00:26:57.571Z,48.50
2018-12-04T00:32:00.057Z,48.54
2018-12-04T00:37:02.537Z,48.98
2018-12-04T00:42:05.071Z,48.87
2018-12-04T00:47:07.930Z,48.76
2018-12-04T00:52:10.426Z,48.99
2018-12-04T00:57:13.019Z,49.03
2018-12-04T01:02:15.616Z,48.57
2018-12-04T01:07:18.205Z,48.89
2018-12-04T01:12:21.030Z,48.64
2018-12-04T01:17:23.510Z,48.97
2018-12-04T01:22:26.046Z,48.66
2018-12-04T01:27:28.689Z,48.61
2018-12-04T01:32:31.282Z,48.72
2018-12-04T01:37:33.874Z,49.01
2018-12-04T01:42:36.465Z,48.90
2018-12-04T01:47:38.958Z,49.03
2018-12-04T01:52:42.375Z,48.56
2018-12-04T01:57:44.914Z,48.57
2018-12-04T02:02:47.470Z,48.81
2018-12-04T02:07:50.054Z,48.78
2018-12-04T02:12:52.598Z,49.12
2018-12-04T02:17:55.181Z,48.68
2018-12-04T02:22:57.734Z,48.90
2018-12-04T02:28:00.429Z,49.12
2018-12-04T02:33:03.302Z,48.57
2018-12-04T02:38:05.785Z,49.25
2018-12-04T02:43:08.324Z,48.91
2018-12-04T02:48:10.910Z,49.16
2018-12-04T02:53:13.501Z,48.69
2018-12-04T02:58:16.020Z,48.71
2018-12-04T03:03:18.595Z,48.92
2018-12-04T03:08:21.181Z,48.77
2018-12-04T03:13:23.649Z,49.01
2018-12-04T03:18:26.187Z,48.76
2018-12-04T03:23:28.763Z,48.87
2018-12-04T03:28:31.261Z,48.66
2018-12-04T03:33:36.687Z,48.72
2018-12-04T03:38:39.255Z,49.06
2018-12-04T03:43:41.738Z,48.94
2018-12-04T03:48:44.250Z,49.01
2018-12-04T03:53:46.723Z,48.70
2018-12-04T03:58:49.246Z,49.09
2018-12-04T04:03:51.787Z,48.77
2018-12-04T04:08:54.306Z,48.81
2018-12-04T04:13:56.857Z,49.09
2018-12-04T04:18:59.560Z,48.78
2018-12-04T04:24:02.146Z,48.67
2018-12-04T04:29:04.745Z,49.21
2018-12-04T04:34:07.230Z,49.06
2018-12-04T04:39:09.829Z,48.70
2018-12-04T04:44:12.474Z,48.72
2018-12-04T04:49:15.018Z,48.95
2018-12-04T04:54:17.729Z,48.83
2018-12-04T04:59:20.222Z,49.34
2018-12-04T05:04:22.801Z,48.96
2018-12-04T05:09:25.601Z,49.30
2018-12-04T05:14:28.090Z,49.41
2018-12-04T05:19:30.648Z,49.10
2018-12-04T05:24:33.319Z,49.40
2018-12-04T05:29:35.882Z,49.37
2018-12-04T05:34:38.574Z,49.29
2018-12-04T05:39:41.072Z,49.19
2018-12-04T05:44:43.554Z,49.42
2018-12-04T05:49:46.031Z,49.48
2018-12-04T05:54:48.529Z,49.43
2018-12-04T05:59:51.002Z,49.08
2018-12-04T06:04:53.476Z,49.66
2018-12-04T06:09:56.009Z,49.04
2018-12-04T06:14:58.718Z,49.04
2018-12-04T06:20:01.312Z,49.45
2018-12-04T06:25:05.226Z,49.04
2018-12-04T06:30:07.922Z,49.14
2018-12-04T06:35:10.454Z,49.30
2018-12-04T06:40:13.018Z,49.08
2018-12-04T06:45:15.601Z,49.14
2018-12-04T06:50:18.098Z,49.40
2018-12-04T06:55:20.585Z,49.23
2018-12-04T07:00:23.288Z,49.12
2018-12-04T07:05:25.883Z,49.04
2018-12-04T07:10:28.472Z,49.01
2018-12-04T07:15:31.065Z,49.53
2018-12-04T07:20:33.558Z,49.17
2018-12-04T07:25:36.048Z,49.18
2018-12-04T07:30:38.742Z,49.05
2018-12-04T07:35:41.270Z,49.21
2018-12-04T07:40:43.835Z,44.61
2018-12-04T07:45:46.344Z,41.37
2018-12-04T07:50:48.922Z,38.21
2018-12-04T07:55:52.366Z,37.23
2018-12-04T08:00:54.935Z,37.41
2018-12-04T08:05:57.518Z,37.71
2018-12-04T08:11:00.113Z,38.03
2018-12-04T08:16:02.709Z,38.69
2018-12-04T08:21:05.219Z,38.98
2018-12-04T08:26:07.806Z,38.68
2018-12-04T08:31:10.388Z,38.98
2018-12-04T08:36:12.982Z,40.05
2018-12-04T08:41:15.607Z,41.04
2018-12-04T08:46:18.214Z,41.51
2018-12-04T08:51:20.771Z,41.36
2018-12-04T08:56:23.266Z,42.01
2018-12-04T09:01:25.849Z,42.14
2018-12-04T09:06:30.257Z,41.99
2018-12-04T09:11:32.778Z,41.90
2018-12-04T09:16:35.277Z,42.55
2018-12-04T09:21:37.762Z,42.14
2018-12-04T09:26:40.286Z,42.74
2018-12-04T09:31:42.950Z,42.67
2018-12-04T09:36:45.543Z,43.10
2018-12-04T09:41:48.169Z,42.83
2018-12-04T09:46:51.001Z,43.15
2018-12-04T09:51:53.569Z,43.44
2018-12-04T09:56:56.125Z,43.64
2018-12-04T10:01:58.607Z,43.53
2018-12-04T10:07:01.210Z,44.22
2018-12-04T10:12:03.802Z,44.25
2018-12-04T10:17:06.318Z,44.07
2018-12-04T10:22:08.890Z,44.05
2018-12-04T10:27:11.490Z,44.28
2018-12-04T10:32:14.082Z,44.51
2018-12-04T10:37:16.674Z,44.58
2018-12-04T10:42:19.265Z,45.19
2018-12-04T10:47:21.782Z,45.54
2018-12-04T10:52:24.362Z,45.63
2018-12-04T10:57:27.051Z,46.32
2018-12-04T11:02:31.638Z,46.50
2018-12-04T11:07:34.283Z,46.38
2018-12-04T11:12:37.221Z,46.09
2018-12-04T11:17:40.050Z,46.77
2018-12-04T11:22:42.553Z,46.85
2018-12-04T11:27:45.098Z,47.12
2018-12-04T11:32:47.565Z,47.02
2018-12-04T11:37:50.038Z,46.50
2018-12-04T11:42:52.520Z,46.97
2018-12-04T11:47:55.133Z,47.15
2018-12-04T11:52:57.674Z,46.20
2018-12-04T11:58:00.234Z,45.98
2018-12-04T12:03:02.777Z,46.21
2018-12-04T12:08:05.298Z,46.24
2018-12-04T12:13:07.778Z,46.26
2018-12-04T12:18:10.338Z,45.50
2018-12-04T12:23:12.811Z,45.35
2018-12-04T12:28:15.282Z,45.44
2018-12-04T12:33:17.757Z,45.21
2018-12-04T12:38:20.365Z,44.71
2018-12-04T12:43:22.841Z,44.38
2018-12-04T12:48:25.346Z,44.39
2018-12-04T12:53:28.140Z,43.77
2018-12-04T12:58:30.768Z,43.84
2018-12-04T13:03:33.246Z,43.55
2018-12-04T13:08:35.858Z,43.52
2018-12-04T13:13:38.340Z,43.15
2018-12-04T13:18:40.816Z,43.52
2018-12-04T13:23:43.341Z,43.18
2018-12-04T13:28:46.721Z,43.44
2018-12-04T13:33:49.227Z,43.14
2018-12-04T13:38:51.970Z,43.42
2018-12-04T13:43:55.224Z,43.32
2018-12-04T13:48:57.730Z,43.09
2018-12-04T13:54:00.258Z,42.85
2018-12-04T13:59:03.009Z,42.93
2018-12-04T14:04:05.488Z,43.04
2018-12-04T14:09:08.190Z,43.34
2018-12-04T14:14:10.703Z,43.27
2018-12-04T14:19:13.252Z,43.78
2018-12-04T14:24:15.894Z,43.55
2018-12-04T14:29:18.463Z,43.75
2018-12-04T14:34:20.966Z,43.76
2018-12-04T14:39:23.542Z,43.24
2018-12-04T14:44:26.404Z,42.94
2018-12-04T14:49:29.016Z,43.14
2018-12-04T14:54:31.873Z,43.07
2018-12-04T14:59:34.441Z,43.04
2018-12-04T15:04:37.157Z,43.37
2018-12-04T15:09:39.664Z,43.42
2018-12-04T15:14:42.327Z,43.80
2018-12-04T15:19:44.818Z,43.88
2018-12-04T15:24:47.310Z,44.31
2018-12-04T15:29:49.841Z,45.05
2018-12-04T15:34:52.364Z,44.64
2018-12-04T15:39:55.054Z,44.73
2018-12-04T15:44:57.713Z,44.87
2018-12-04T15:50:00.253Z,44.20
2018-12-04T15:55:03.474Z,44.07
2018-12-04T16:00:07.338Z,44.46
2018-12-04T16:05:09.847Z,43.88
2018-12-04T16:10:12.530Z,44.04
2018-12-04T16:15:15.072Z,43.97
2018-12-04T16:20:17.626Z,44.00
2018-12-04T16:25:21.254Z,43.85
2018-12-04T16:30:24.221Z,43.66
2018-12-04T16:35:26.838Z,43.79
2018-12-04T16:40:29.427Z,43.78
2018-12-04T16:45:32.028Z,43.68
2018-12-04T16:50:34.587Z,43.77
2018-12-04T16:55:38.896Z,43.79
2018-12-04T17:00:41.419Z,43.70
2018-12-04T17:05:44.266Z,44.29
2018-12-04T17:10:46.834Z,43.96
2018-12-04T17:15:49.432Z,44.12
2018-12-04T17:20:51.967Z,44.30
2018-12-04T17:25:54.518Z,44.04
2018-12-04T17:30:57.010Z,44.22
2018-12-04T17:35:59.605Z,44.55
2018-12-04T17:41:02.118Z,44.68
2018-12-04T17:46:04.690Z,44.48
2018-12-04T17:51:07.698Z,44.76
2018-12-04T17:56:10.290Z,44.77
2018-12-04T18:01:12.831Z,44.20
2018-12-04T18:06:15.999Z,44.61
2018-12-04T18:11:18.613Z,44.13
2018-12-04T18:16:21.174Z,44.01
2018-12-04T18:21:23.669Z,44.52
2018-12-04T18:26:26.365Z,43.74
2018-12-04T18:31:28.863Z,43.85
2018-12-04T18:36:31.411Z,44.05
2018-12-04T18:41:34.048Z,43.92
2018-12-04T18:46:36.589Z,43.33
2018-12-04T18:51:39.139Z,42.94
2018-12-04T18:56:41.721Z,43.19
2018-12-04T19:01:44.218Z,42.73
2018-12-04T19:06:46.790Z,42.67
2018-12-04T19:11:49.410Z,43.00
2018-12-04T19:16:51.998Z,42.55
2018-12-04T19:21:54.793Z,42.92
2018-12-04T19:26:57.281Z,42.55
2018-12-04T19:31:59.778Z,42.38
2018-12-04T19:37:02.375Z,42.28
2018-12-04T19:42:04.975Z,42.47
2018-12-04T19:47:07.538Z,42.70
2018-12-04T19:52:10.524Z,42.51
2018-12-04T19:57:14.390Z,42.92
2018-12-04T20:02:16.982Z,42.97
2018-12-04T20:07:19.578Z,43.02
2018-12-04T20:12:22.170Z,43.49
2018-12-04T20:17:24.946Z,43.06
2018-12-04T20:22:27.555Z,43.50
2018-12-04T20:27:30.158Z,43.78
2018-12-04T20:32:32.754Z,44.17
2018-12-04T20:37:35.712Z,43.99
2018-12-04T20:42:38.208Z,44.16
2018-12-04T20:47:40.810Z,44.19
2018-12-04T20:52:43.701Z,44.16
2018-12-04T20:57:46.585Z,44.09
2018-12-04T21:02:49.503Z,44.21
2018-12-04T21:07:52.117Z,44.68
2018-12-04T21:12:56.551Z,44.54
2018-12-04T21:17:59.069Z,44.98
2018-12-04T21:23:01.565Z,44.44
2018-12-04T21:28:09.754Z,44.80
2018-12-04T21:33:17.975Z,45.18
2018-12-04T21:38:26.174Z,44.89
2018-12-04T21:43:34.249Z,44.77
2018-12-04T21:48:37.478Z,45.23
2018-12-04T21:53:40.009Z,45.31
2018-12-04T21:58:42.811Z,45.51
2018-12-04T22:03:45.738Z,45.18
2018-12-04T22:08:48.213Z,45.16
2018-12-04T22:13:50.751Z,45.25
2018-12-04T22:18:53.263Z,45.69
2018-12-04T22:23:56.647Z,45.61
2018-12-04T22:28:59.121Z,45.53
2018-12-04T22:34:01.741Z,45.48
2018-12-04T22:39:07.406Z,45.39
2018-12-04T22:44:09.910Z,45.97
2018-12-04T22:49:12.401Z,45.98
2018-12-04T22:54:15.318Z,45.67
2018-12-04T22:59:17.887Z,46.09
2018-12-04T23:04:20.586Z,45.93
2018-12-04T23:09:23.074Z,46.09
2018-12-04T23:14:25.566Z,45.87
2018-12-04T23:19:28.179Z,45.74
2018-12-04T23:24:30.765Z,45.87
2018-12-04T23:29:34.025Z,45.95
2018-12-04T23:34:36.709Z,46.42
2018-12-04T23:39:39.261Z,46.19
2018-12-04T23:44:42.083Z,46.34
2018-12-04T23:49:44.558Z,46.16
2018-12-04T23:54:47.037Z,46.15
2018-12-04T23:59:49.525Z,46.12
